createdAt,value
2023-01-11T00:02:10.015Z,6.00
2023-01-11T00:04:36.758Z,6.00
2023-01-11T00:07:03.306Z,6.00
2023-01-11T00:09:29.868Z,5.90
2023-01-11T00:11:56.472Z,5.90
2023-01-11T00:14:23.431Z,5.90
2023-01-11T00:16:50.237Z,5.90
2023-01-11T00:19:16.678Z,5.90
2023-01-11T00:21:43.194Z,6.00
2023-01-11T00:24:09.648Z,6.00
2023-01-11T00:26:36.170Z,6.10
2023-01-11T00:29:02.771Z,6.10
2023-01-11T00:31:29.278Z,6.10
2023-01-11T00:33:55.964Z,6.20
2023-01-11T00:36:22.502Z,6.20
2023-01-11T00:38:53.705Z,6.30
2023-01-11T00:41:39.530Z,6.30
2023-01-11T00:44:24.877Z,6.30
2023-01-11T00:47:10.168Z,6.40
2023-01-11T00:49:36.755Z,6.40
2023-01-11T00:52:07.104Z,6.40
2023-01-11T00:54:33.571Z,6.40
2023-01-11T00:57:00.010Z,6.50
2023-01-11T00:59:26.541Z,6.40
2023-01-11T01:01:53.069Z,6.40
2023-01-11T01:04:19.544Z,6.50
2023-01-11T01:06:46.080Z,6.50
2023-01-11T01:09:12.717Z,6.40
2023-01-11T01:11:39.197Z,6.50
2023-01-11T01:14:24.416Z,6.50
2023-01-11T01:16:51.987Z,6.50
2023-01-11T01:19:18.842Z,6.50
2023-01-11T01:21:45.340Z,6.50
2023-01-11T01:24:11.999Z,6.40
2023-01-11T01:26:38.430Z,6.40
2023-01-11T01:29:04.915Z,6.30
2023-01-11T01:31:31.663Z,6.30
2023-01-11T01:33:58.316Z,6.20
2023-01-11T01:36:25.135Z,6.30
2023-01-11T01:38:51.598Z,6.30
2023-01-11T01:41:18.179Z,6.30
2023-01-11T01:43:47.678Z,6.30
2023-01-11T01:46:15.400Z,6.30
2023-01-11T01:48:43.141Z,6.30
2023-01-11T01:51:13.083Z,6.20
2023-01-11T01:53:44.050Z,6.20
2023-01-11T01:56:14.685Z,6.20
2023-01-11T01:58:43.677Z,6.20
2023-01-11T02:01:28.921Z,6.20
2023-01-11T02:03:55.480Z,6.20
2023-01-11T02:06:22.631Z,6.20
2023-01-11T02:08:53.350Z,6.20
2023-01-11T02:11:31.767Z,6.20
2023-01-11T02:13:59.529Z,6.20
2023-01-11T02:16:26.083Z,6.30
2023-01-11T02:18:53.176Z,6.30
2023-01-11T02:21:25.804Z,6.30
2023-01-11T02:24:04.346Z,6.30
2023-01-11T02:26:48.996Z,6.30
2023-01-11T02:29:38.544Z,6.30
2023-01-11T02:32:23.010Z,6.30
2023-01-11T02:35:03.058Z,6.30
2023-01-11T02:37:29.535Z,6.40
2023-01-11T02:39:59.854Z,6.40
2023-01-11T02:42:51.435Z,6.40
2023-01-11T02:45:23.726Z,6.40
2023-01-11T02:47:57.328Z,6.40
2023-01-11T02:50:32.947Z,6.40
2023-01-11T02:53:18.212Z,6.40
2023-01-11T02:55:48.370Z,6.30
2023-01-11T02:58:15.808Z,6.30
2023-01-11T03:00:43.038Z,6.30
2023-01-11T03:03:13.587Z,6.30
2023-01-11T03:05:43.525Z,6.30
2023-01-11T03:08:24.468Z,6.30
2023-01-11T03:11:06.267Z,6.30
2023-01-11T03:13:32.770Z,6.30
2023-01-11T03:16:17.917Z,6.30
2023-01-11T03:18:57.875Z,6.30
2023-01-11T03:21:28.773Z,6.40
2023-01-11T03:23:55.373Z,6.40
2023-01-11T03:26:24.562Z,6.40
2023-01-11T03:29:00.436Z,6.50
2023-01-11T03:31:47.123Z,6.50
2023-01-11T03:34:25.138Z,6.50
2023-01-11T03:36:56.810Z,6.50
2023-01-11T03:39:38.336Z,6.50
2023-01-11T03:42:05.943Z,6.50
2023-01-11T03:44:34.947Z,6.50
2023-01-11T03:47:04.797Z,6.60
2023-01-11T03:49:33.859Z,6.60
2023-01-11T03:52:02.330Z,6.60
2023-01-11T03:54:30.100Z,6.60
2023-01-11T03:57:05.638Z,6.70
2023-01-11T03:59:32.876Z,6.70
2023-01-11T04:01:59.768Z,6.80
2023-01-11T04:04:26.794Z,6.80
2023-01-11T04:06:53.415Z,6.80
2023-01-11T04:09:19.858Z,6.80
2023-01-11T04:11:46.491Z,6.80
2023-01-11T04:14:12.942Z,6.80
2023-01-11T04:16:39.480Z,6.90
2023-01-11T04:19:05.996Z,6.80
2023-01-11T04:21:32.521Z,6.90
2023-01-11T04:23:59.264Z,6.80
2023-01-11T04:26:25.757Z,6.90
2023-01-11T04:28:54.220Z,6.90
2023-01-11T04:31:21.141Z,6.80
2023-01-11T04:33:47.805Z,6.80
2023-01-11T04:36:14.362Z,6.80
2023-01-11T04:38:40.868Z,6.90
2023-01-11T04:41:26.154Z,6.90
2023-01-11T04:43:56.305Z,6.90
2023-01-11T04:46:23.795Z,6.90
2023-01-11T04:48:50.594Z,6.90
2023-01-11T04:51:17.142Z,7.00
2023-01-11T04:53:43.688Z,7.00
2023-01-11T04:56:11.983Z,7.00
2023-01-11T04:58:38.502Z,7.10
2023-01-11T05:01:09.688Z,7.10
2023-01-11T05:03:36.376Z,7.10
2023-01-11T05:06:02.881Z,7.10
2023-01-11T05:08:29.916Z,7.10
2023-01-11T05:10:57.567Z,7.10
2023-01-11T05:13:42.938Z,7.10
2023-01-11T05:16:20.062Z,7.20
2023-01-11T05:18:48.076Z,7.20
2023-01-11T05:21:16.132Z,7.20
2023-01-11T05:23:42.993Z,7.30
2023-01-11T05:26:10.654Z,7.30
2023-01-11T05:28:37.274Z,7.40
2023-01-11T05:31:04.048Z,7.40
2023-01-11T05:33:30.866Z,7.50
2023-01-11T05:36:00.974Z,7.50
2023-01-11T05:38:27.665Z,7.50
2023-01-11T05:40:55.288Z,7.60
2023-01-11T05:43:21.713Z,7.70
2023-01-11T05:45:48.279Z,7.60
2023-01-11T05:48:14.800Z,7.60
2023-01-11T05:50:41.358Z,7.70
2023-01-11T05:53:07.868Z,7.70
2023-01-11T05:55:34.443Z,7.70
2023-01-11T05:58:00.864Z,7.80
2023-01-11T06:00:27.348Z,7.80
2023-01-11T06:02:53.901Z,7.80
2023-01-11T06:05:20.543Z,7.80
2023-01-11T06:07:47.057Z,7.80
2023-01-11T06:10:13.503Z,7.80
2023-01-11T06:12:39.935Z,7.80
2023-01-11T06:15:06.635Z,7.80
2023-01-11T06:17:33.066Z,7.70
2023-01-11T06:19:59.775Z,7.80
2023-01-11T06:22:26.265Z,7.70
2023-01-11T06:24:52.763Z,7.70
2023-01-11T06:27:19.301Z,7.70
2023-01-11T06:29:45.825Z,7.70
2023-01-11T06:32:12.342Z,7.70
2023-01-11T06:34:38.901Z,7.70
2023-01-11T06:37:05.367Z,7.70
2023-01-11T06:39:32.074Z,7.70
2023-01-11T06:41:58.557Z,7.70
2023-01-11T06:44:25.082Z,7.70
2023-01-11T06:46:51.548Z,7.70
2023-01-11T06:49:18.014Z,7.70
2023-01-11T06:51:44.542Z,7.70
2023-01-11T06:54:11.071Z,7.60
2023-01-11T06:56:37.552Z,7.70
2023-01-11T06:59:04.065Z,7.70
2023-01-11T07:01:32.158Z,7.70
2023-01-11T07:03:58.778Z,7.70
2023-01-11T07:06:25.588Z,7.70
2023-01-11T07:08:52.093Z,7.70
2023-01-11T07:11:18.593Z,7.70
2023-01-11T07:13:45.130Z,7.70
2023-01-11T07:16:11.688Z,7.70
2023-01-11T07:18:38.174Z,7.70
2023-01-11T07:21:04.769Z,7.70
2023-01-11T07:23:31.307Z,7.70
2023-01-11T07:25:57.803Z,7.70
2023-01-11T07:28:24.395Z,7.80
2023-01-11T07:30:58.607Z,7.80
2023-01-11T07:33:26.264Z,7.80
2023-01-11T07:35:53.016Z,7.80
2023-01-11T07:38:19.701Z,7.80
2023-01-11T07:40:46.274Z,7.80
2023-01-11T07:43:18.112Z,7.90
2023-01-11T07:45:47.792Z,7.90
2023-01-11T07:48:15.279Z,7.90
2023-01-11T07:50:44.752Z,7.90
2023-01-11T07:53:12.309Z,7.90
2023-01-11T07:55:39.623Z,7.90
2023-01-11T07:58:11.105Z,7.90
2023-01-11T08:00:37.610Z,7.90
2023-01-11T08:03:04.225Z,7.90
2023-01-11T08:05:30.896Z,7.90
2023-01-11T08:07:57.665Z,8.00
2023-01-11T08:10:24.377Z,8.00
2023-01-11T08:13:09.656Z,8.00
2023-01-11T08:15:42.417Z,8.00
2023-01-11T08:18:11.233Z,8.00
2023-01-11T08:20:38.242Z,8.00
2023-01-11T08:23:05.254Z,8.00
2023-01-11T08:25:32.059Z,8.00
2023-01-11T08:28:02.732Z,8.00
2023-01-11T08:30:29.723Z,8.10
2023-01-11T08:32:57.336Z,8.10
2023-01-11T08:35:24.545Z,8.10
2023-01-11T08:37:51.053Z,8.10
2023-01-11T08:40:17.568Z,8.10
2023-01-11T08:42:44.061Z,8.10
2023-01-11T08:45:10.626Z,8.10
2023-01-11T08:47:37.134Z,8.10
2023-01-11T08:50:04.335Z,8.10
2023-01-11T08:52:30.967Z,8.10
2023-01-11T08:54:57.469Z,8.20
2023-01-11T08:57:23.989Z,8.10
2023-01-11T08:59:50.564Z,8.20
2023-01-11T09:02:17.336Z,8.20
2023-01-11T09:04:43.768Z,8.20
2023-01-11T09:07:10.323Z,8.20
2023-01-11T09:09:36.856Z,8.30
2023-01-11T09:12:05.841Z,8.30
2023-01-11T09:14:32.551Z,8.30
2023-01-11T09:16:59.832Z,8.30
2023-01-11T09:19:26.424Z,8.30
2023-01-11T09:21:53.533Z,8.40
2023-01-11T09:24:20.031Z,8.30
2023-01-11T09:26:46.612Z,8.40
2023-01-11T09:29:13.720Z,8.40
2023-01-11T09:31:40.452Z,8.40
2023-01-11T09:34:08.100Z,8.40
2023-01-11T09:36:36.258Z,8.40
2023-01-11T09:39:07.422Z,8.50
2023-01-11T09:41:33.914Z,8.40
2023-01-11T09:44:16.584Z,8.50
2023-01-11T09:46:48.222Z,8.50
2023-01-11T09:49:16.783Z,8.50
2023-01-11T09:51:43.435Z,8.50
2023-01-11T09:54:15.885Z,8.60
2023-01-11T09:57:10.474Z,8.60
2023-01-11T09:59:46.620Z,8.60
2023-01-11T10:02:23.357Z,8.60
2023-01-11T10:05:00.359Z,8.60
2023-01-11T10:07:34.487Z,8.60
2023-01-11T10:18:26.398Z,8.70
2023-01-11T10:19:35.900Z,8.70
2023-01-11T10:22:12.046Z,8.80
2023-01-11T10:24:44.076Z,8.70
2023-01-11T10:27:34.100Z,8.70
2023-01-11T10:30:33.138Z,8.80
2023-01-11T10:33:37.824Z,8.80
2023-01-11T10:36:32.596Z,8.80
2023-01-11T10:39:21.636Z,8.80
2023-01-11T10:42:02.262Z,8.80
2023-01-11T10:44:49.722Z,8.80
2023-01-11T10:47:19.409Z,8.90
2023-01-11T10:49:55.895Z,8.90
2023-01-11T10:52:28.094Z,8.90
2023-01-11T10:54:55.804Z,9.00
2023-01-11T10:57:32.217Z,9.00
2023-01-11T11:00:09.274Z,9.00
2023-01-11T11:02:41.801Z,9.00
2023-01-11T11:05:27.029Z,9.00
2023-01-11T11:07:56.141Z,9.00
2023-01-11T11:10:34.874Z,9.00
2023-01-11T11:13:04.291Z,9.00
2023-01-11T11:15:38.775Z,9.00
2023-01-11T11:18:05.425Z,9.00
2023-01-11T11:20:33.250Z,9.00
2023-01-11T11:23:00.323Z,9.10
2023-01-11T11:25:29.890Z,9.10
2023-01-11T11:28:02.586Z,9.20
2023-01-11T11:30:31.385Z,9.30
2023-01-11T11:33:00.007Z,9.40
2023-01-11T11:35:30.373Z,9.50
2023-01-11T11:37:56.883Z,9.60
2023-01-11T11:40:31.059Z,9.60
2023-01-11T11:43:15.947Z,9.70
2023-01-11T11:45:52.837Z,9.70
2023-01-11T11:48:19.885Z,9.70
2023-01-11T11:50:47.202Z,9.80
2023-01-11T11:53:43.465Z,9.80
2023-01-11T11:56:15.766Z,9.80
2023-01-11T11:58:43.092Z,9.90
2023-01-11T12:01:32.958Z,10.10
2023-01-11T12:04:01.433Z,10.20
2023-01-11T12:06:29.323Z,10.30
2023-01-11T12:08:56.784Z,10.40
2023-01-11T12:11:32.424Z,10.40
2023-01-11T12:14:01.678Z,10.30
2023-01-11T12:16:30.331Z,10.20
2023-01-11T12:18:56.857Z,10.10
2023-01-11T12:21:24.871Z,10.10
2023-01-11T12:24:10.091Z,10.00
2023-01-11T12:26:51.960Z,10.00
2023-01-11T12:29:26.358Z,10.00
2023-01-11T12:32:05.866Z,9.90
2023-01-11T12:34:58.383Z,9.90
2023-01-11T12:37:54.051Z,9.90
2023-01-11T12:40:34.379Z,9.90
2023-01-11T12:43:08.880Z,9.90
2023-01-11T12:45:35.420Z,10.00
2023-01-11T12:48:01.916Z,9.90
2023-01-11T12:50:31.633Z,9.90
2023-01-11T12:53:06.965Z,9.90
2023-01-11T12:55:52.536Z,9.90
2023-01-11T12:58:22.749Z,9.90
2023-01-11T13:01:08.197Z,10.00
2023-01-11T13:03:49.921Z,10.00
2023-01-11T13:06:33.564Z,10.00
2023-01-11T13:09:04.572Z,10.00
2023-01-11T13:11:37.111Z,10.10
2023-01-11T13:14:13.015Z,10.10
2023-01-11T13:16:47.489Z,10.10
2023-01-11T13:19:18.637Z,10.10
2023-01-11T13:21:53.090Z,10.20
2023-01-11T13:24:25.322Z,10.10
2023-01-11T13:26:54.156Z,10.10
2023-01-11T13:29:23.528Z,10.10
2023-01-11T13:31:50.130Z,10.10
2023-01-11T13:34:25.341Z,10.10
2023-01-11T13:36:54.411Z,10.20
2023-01-11T13:39:23.971Z,10.20
2023-01-11T13:41:51.943Z,10.20
2023-01-11T13:44:21.918Z,10.20
2023-01-11T13:46:55.157Z,10.20
2023-01-11T13:49:40.353Z,10.20
2023-01-11T13:52:14.614Z,10.20
2023-01-11T13:54:48.593Z,10.30
2023-01-11T13:57:19.750Z,10.30
2023-01-11T13:59:49.076Z,10.30
2023-01-11T14:02:38.039Z,10.30
2023-01-11T14:05:10.437Z,10.30
2023-01-11T14:07:49.448Z,10.30
2023-01-11T14:10:31.196Z,10.30
2023-01-11T14:12:57.688Z,10.30
2023-01-11T14:15:32.256Z,10.30
2023-01-11T14:18:13.865Z,10.20
2023-01-11T14:20:59.356Z,10.20
2023-01-11T14:23:49.156Z,10.20
2023-01-11T14:26:16.239Z,10.10
2023-01-11T14:29:01.115Z,10.10
2023-01-11T14:31:30.399Z,10.00
2023-01-11T14:34:12.146Z,10.00
2023-01-11T14:36:44.746Z,10.00
2023-01-11T14:39:24.431Z,9.90
2023-01-11T14:42:06.320Z,9.90
2023-01-11T14:44:38.715Z,9.80
2023-01-11T14:47:15.013Z,9.90
2023-01-11T14:49:52.329Z,9.80
2023-01-11T14:52:34.576Z,9.80
2023-01-11T14:55:06.613Z,9.70
2023-01-11T14:57:51.736Z,9.70
2023-01-11T15:00:18.208Z,9.70
2023-01-11T15:02:45.466Z,9.70
2023-01-11T15:05:27.590Z,9.70
2023-01-11T15:08:08.030Z,9.60
2023-01-11T15:10:34.659Z,9.60
2023-01-11T15:13:04.732Z,9.50
2023-01-11T15:15:51.699Z,9.50
2023-01-11T15:18:25.347Z,9.50
2023-01-11T15:20:53.758Z,9.50
2023-01-11T15:23:20.794Z,9.40
2023-01-11T15:25:48.084Z,9.30
2023-01-11T15:28:33.150Z,9.30
2023-01-11T15:31:02.526Z,9.20
2023-01-11T15:33:44.155Z,9.20
2023-01-11T15:36:11.570Z,9.10
2023-01-11T15:38:42.373Z,9.10
2023-01-11T15:41:50.102Z,9.10
2023-01-11T15:44:34.826Z,9.00
2023-01-11T15:47:05.481Z,8.90
2023-01-11T15:49:41.294Z,8.80
2023-01-11T15:52:20.133Z,8.80
2023-01-11T15:55:05.438Z,8.70
2023-01-11T15:57:43.581Z,8.70
2023-01-11T16:00:30.182Z,8.70
2023-01-11T16:03:15.467Z,8.70
2023-01-11T16:05:44.071Z,8.80
2023-01-11T16:08:19.721Z,8.80
2023-01-11T16:10:55.153Z,8.70
2023-01-11T16:13:28.035Z,8.70
2023-01-11T16:16:07.111Z,8.60
2023-01-11T16:18:54.650Z,8.70
2023-01-11T16:21:29.281Z,8.60
2023-01-11T16:23:55.831Z,8.60
2023-01-11T16:26:22.733Z,8.60
2023-01-11T16:28:50.824Z,8.50
2023-01-11T16:31:17.679Z,8.50
2023-01-11T16:33:44.331Z,8.50
2023-01-11T16:36:21.833Z,8.50
2023-01-11T16:39:02.804Z,8.50
2023-01-11T16:41:32.186Z,8.40
2023-01-11T16:44:04.040Z,8.30
2023-01-11T16:46:42.428Z,8.30
2023-01-11T16:49:09.540Z,8.30
2023-01-11T16:51:36.021Z,8.20
2023-01-11T16:54:03.829Z,8.20
2023-01-11T16:56:30.730Z,8.10
2023-01-11T16:59:15.760Z,8.00
2023-01-11T17:01:49.823Z,8.00
2023-01-11T17:04:25.550Z,8.00
2023-01-11T17:06:52.017Z,8.00
2023-01-11T17:09:21.479Z,8.00
2023-01-11T17:11:50.314Z,8.00
2023-01-11T17:14:31.443Z,8.00
2023-01-11T17:17:02.527Z,8.00
2023-01-11T17:19:34.361Z,8.00
2023-01-11T17:22:06.158Z,7.90
2023-01-11T17:24:55.973Z,7.90
2023-01-11T17:27:25.485Z,7.80
2023-01-11T17:29:53.288Z,7.80
2023-01-11T17:32:22.172Z,7.80
2023-01-11T17:34:49.620Z,7.90
2023-01-11T17:37:17.188Z,7.90
2023-01-11T17:39:46.185Z,7.80
2023-01-11T17:42:32.374Z,7.80
2023-01-11T17:45:13.011Z,7.80
2023-01-11T17:47:40.513Z,7.70
2023-01-11T17:50:17.322Z,7.60
2023-01-11T17:52:54.226Z,7.60
2023-01-11T17:55:25.142Z,7.50
2023-01-11T17:58:09.024Z,7.50
2023-01-11T18:00:35.902Z,7.50
2023-01-11T18:03:08.018Z,7.50
2023-01-11T18:05:34.512Z,7.40
2023-01-11T18:08:01.046Z,7.40
2023-01-11T18:10:28.594Z,7.30
2023-01-11T18:12:56.161Z,7.30
2023-01-11T18:15:33.359Z,7.20
2023-01-11T18:18:00.631Z,7.20
2023-01-11T18:20:32.481Z,7.10
2023-01-11T18:23:05.177Z,7.00
2023-01-11T18:25:34.456Z,7.00
2023-01-11T18:28:21.155Z,6.90
2023-01-11T18:30:52.217Z,6.90
2023-01-11T18:33:25.041Z,6.90
2023-01-11T18:35:57.685Z,6.90
2023-01-11T18:38:25.817Z,6.80
2023-01-11T18:40:53.236Z,6.90
2023-01-11T18:43:23.540Z,6.90
2023-01-11T18:45:50.108Z,6.80
2023-01-11T18:48:16.719Z,6.80
2023-01-11T18:50:44.721Z,6.80
2023-01-11T18:53:12.111Z,6.80
2023-01-11T18:55:38.616Z,6.80
2023-01-11T18:58:05.318Z,6.70
2023-01-11T19:00:31.874Z,6.70
2023-01-11T19:02:58.764Z,6.70
2023-01-11T19:05:25.288Z,6.80
2023-01-11T19:07:52.001Z,6.70
2023-01-11T19:10:19.697Z,6.70
2023-01-11T19:12:46.257Z,6.60
2023-01-11T19:15:16.323Z,6.60
2023-01-11T19:17:43.436Z,6.60
2023-01-11T19:20:10.944Z,6.70
2023-01-11T19:22:37.821Z,6.70
2023-01-11T19:25:05.010Z,6.70
2023-01-11T19:27:31.586Z,6.70
2023-01-11T19:29:58.284Z,6.60
2023-01-11T19:32:25.565Z,6.60
2023-01-11T19:34:52.920Z,6.60
2023-01-11T19:37:19.535Z,6.60
2023-01-11T19:39:46.453Z,6.60
2023-01-11T19:42:12.958Z,6.50
2023-01-11T19:44:39.575Z,6.60
2023-01-11T19:47:12.100Z,6.50
2023-01-11T19:49:40.328Z,6.50
2023-01-11T19:52:14.134Z,6.60
2023-01-11T19:54:43.997Z,6.60
2023-01-11T19:57:11.138Z,6.60
2023-01-11T19:59:37.624Z,6.60
2023-01-11T20:02:05.220Z,6.50
2023-01-11T20:04:31.791Z,6.50
2023-01-11T20:06:58.213Z,6.50
2023-01-11T20:09:24.976Z,6.50
2023-01-11T20:11:53.188Z,6.50
2023-01-11T20:14:20.076Z,6.50
2023-01-11T20:16:46.565Z,6.40
2023-01-11T20:19:13.221Z,6.40
2023-01-11T20:21:39.699Z,6.40
2023-01-11T20:24:06.432Z,6.50
2023-01-11T20:26:34.299Z,6.50
2023-01-11T20:29:01.520Z,6.50
2023-01-11T20:31:31.390Z,6.50
2023-01-11T20:33:58.971Z,6.50
2023-01-11T20:36:25.986Z,6.50
2023-01-11T20:38:53.195Z,6.50
2023-01-11T20:41:39.561Z,6.60
2023-01-11T20:44:06.879Z,6.60
2023-01-11T20:46:33.950Z,6.50
2023-01-11T20:49:00.563Z,6.50
2023-01-11T20:51:27.357Z,6.50
2023-01-11T20:53:53.957Z,6.50
2023-01-11T20:56:20.538Z,6.60
2023-01-11T20:58:48.303Z,6.50
2023-01-11T21:01:27.307Z,6.50
2023-01-11T21:03:54.514Z,6.40
2023-01-11T21:06:20.954Z,6.40
2023-01-11T21:08:47.488Z,6.40
2023-01-11T21:11:15.096Z,6.50
2023-01-11T21:13:41.993Z,6.50
2023-01-11T21:16:13.083Z,6.50
2023-01-11T21:18:43.239Z,6.60
2023-01-11T21:21:13.842Z,6.60
2023-01-11T21:23:40.433Z,6.60
2023-01-11T21:26:17.231Z,6.80
2023-01-11T21:28:44.191Z,6.80
2023-01-11T21:31:11.537Z,6.80
2023-01-11T21:33:39.259Z,6.90
2023-01-11T21:36:07.538Z,6.80
2023-01-11T21:38:34.778Z,6.80
2023-01-11T21:41:08.750Z,6.80
2023-01-11T21:43:35.471Z,6.80
2023-01-11T21:46:02.640Z,6.80
2023-01-11T21:48:29.150Z,6.70
2023-01-11T21:50:55.792Z,6.70
2023-01-11T21:53:23.459Z,6.70
2023-01-11T21:55:50.383Z,6.70
2023-01-11T21:58:17.097Z,6.70
2023-01-11T22:00:43.653Z,6.70
2023-01-11T22:03:10.266Z,6.60
2023-01-11T22:05:36.788Z,6.70
2023-01-11T22:08:03.456Z,6.60
2023-01-11T22:10:30.081Z,6.70
2023-01-11T22:12:56.524Z,6.70
2023-01-11T22:15:23.040Z,6.70
2023-01-11T22:17:49.578Z,6.70
2023-01-11T22:20:17.485Z,6.70
2023-01-11T22:22:44.121Z,6.70
2023-01-11T22:25:10.621Z,6.70
2023-01-11T22:27:37.188Z,6.70
2023-01-11T22:30:03.927Z,6.70
2023-01-11T22:32:31.223Z,6.70
2023-01-11T22:34:58.384Z,6.70
2023-01-11T22:37:24.872Z,6.70
2023-01-11T22:39:51.378Z,6.70
2023-01-11T22:42:17.853Z,6.70
2023-01-11T22:44:44.333Z,6.70
2023-01-11T22:47:10.805Z,6.70
2023-01-11T22:49:37.304Z,6.80
2023-01-11T22:52:03.921Z,6.70
2023-01-11T22:54:30.432Z,6.70
2023-01-11T22:56:58.412Z,6.70
2023-01-11T22:59:25.632Z,6.70
2023-01-11T23:01:52.111Z,6.70
2023-01-11T23:04:18.655Z,6.70
2023-01-11T23:06:45.280Z,6.80
2023-01-11T23:09:15.929Z,6.80
2023-01-11T23:12:03.682Z,6.90
2023-01-11T23:14:31.167Z,6.90
2023-01-11T23:17:06.626Z,7.00
2023-01-11T23:19:34.210Z,7.10
2023-01-11T23:22:00.748Z,7.10
2023-01-11T23:24:27.276Z,7.10
2023-01-11T23:26:53.851Z,7.20
2023-01-11T23:29:20.365Z,7.20
2023-01-11T23:31:46.901Z,7.30
2023-01-11T23:34:13.452Z,7.40
2023-01-11T23:36:40.888Z,7.40
2023-01-11T23:39:09.598Z,7.60
2023-01-11T23:41:54.691Z,7.70
2023-01-11T23:44:22.591Z,7.70
2023-01-11T23:47:08.338Z,7.80
2023-01-11T23:49:35.059Z,7.90
2023-01-11T23:52:01.600Z,7.90
2023-01-11T23:54:29.321Z,7.90
2023-01-11T23:56:56.501Z,7.90
2023-01-11T23:59:23.340Z,7.90
